Terminal Aerodrome Forecast
Issued by NWS Sterling, VA

Current Version | Previous Version | Graphics & Text | Print | Product List | Glossary On
Versions: 1 2 3 4 5 6 7 8 9 10 11 12 13 14 15 16 17 18 19 20 21 22 23 24 25 26 27 28 29
000
FTUS41 KLWX 261730
TAFDCA
TAF
KDCA 261730Z 2618/2718 17012KT P6SM VCTS SCT050CB
     FM262000 20009KT P6SM VCTS SCT050CB BKN060
     FM270000 16008KT P6SM VCTS SCT050CB BKN060
     FM270400 17006KT P6SM SCT050 BKN100=

USA.gov is the U.S. government's official web portal to all federal, state and local government web resources and services.